MST,Max TemperatureF,Mean TemperatureF,Min TemperatureF,Max Dew PointF,MeanDew PointF,Min DewpointF,Max Humidity, Mean Humidity, Min Humidity, Max Sea Level PressureIn, Mean Sea Level PressureIn, Min Sea Level PressureIn, Max VisibilityMiles, Mean VisibilityMiles, Min VisibilityMiles, Max Wind SpeedMPH, Mean Wind SpeedMPH, Max Gust SpeedMPH,PrecipitationIn, CloudCover, Events, WindDirDegrees
2013-1-1,24,14,3,10,4,-1,83,64,45,30.32,30.21,29.98,10,10,10,24,13,32,0.00,2,,294
2013-1-2,24,19,13,10,6,0,67,56,45,30.41,30.29,30.10,10,10,10,30,16,41,T,5,,314
2013-1-3,32,21,10,2,-1,-4,58,42,26,30.44,30.37,30.27,10,10,10,22,14,29,0.00,0,,300
2013-1-4,46,32,18,13,4,-1,46,34,22,30.29,30.17,30.07,10,10,10,23,11,30,0.00,0,,295
2013-1-5,35,26,16,6,2,-3,53,41,29,30.40,30.27,30.06,10,10,10,26,13,35,0.00,0,,304
2013-1-6,48,29,9,9,-1,-10,53,31,9,30.36,30.14,29.88,10,10,10,21,8,23,0.00,0,,247
2013-1-7,49,37,24,13,4,-4,50,31,11,30.04,29.90,29.70,10,10,10,29,11,36,0.00,0,,250
2013-1-8,42,36,30,17,15,7,49,38,27,30.22,29.96,29.69,10,10,10,45,23,55,0.00,0,,278
2013-1-9,51,38,24,16,13,8,55,37,18,30.27,30.16,29.98,10,10,10,26,12,35,0.00,0,,234
2013-1-10,48,34,19,19,15,12,71,48,25,29.96,29.69,29.42,10,10,10,13,4,14,0.00,0,,233
2013-1-11,36,19,1,18,9,-3,87,62,36,29.97,29.48,29.27,10,5,0,28,11,33,0.12,6,Fog-Snow,358
2013-1-12,7,2,-3,-2,-6,-11,87,72,56,30.25,30.07,29.85,10,7,2,18,7,25,T,5,Snow,332
2013-1-13,7,-3,-13,-4,-10,-17,79,70,60,30.43,30.28,29.98,10,10,8,12,5,15,T,3,,301
2013-1-14,12,-1,-15,-6,-12,-20,87,64,41,30.53,30.37,29.94,10,10,8,16,9,18,0.00,0,,279
2013-1-15,29,12,-5,16,5,-15,61,56,51,30.30,30.23,29.94,10,10,10,29,16,44,0.00,5,,296
2013-1-16,43,33,23,19,15,11,63,50,36,30.41,30.29,30.17,10,10,10,26,16,38,0.00,0,,293
2013-1-17,45,29,13,16,11,6,67,48,28,30.56,30.40,30.21,10,10,10,24,11,30,0.00,0,,245
2013-1-18,47,36,24,10,7,5,42,31,20,30.23,30.12,30.01,10,10,10,39,21,48,0.00,0,,269
2013-1-19,50,39,27,9,5,0,36,25,13,30.26,30.15,30.02,10,10,10,30,12,36,0.00,0,,280
2013-1-20,38,27,16,15,9,3,80,52,24,30.34,30.24,30.06,10,10,10,23,9,30,0.00,0,,314
2013-1-21,48,32,15,11,8,3,74,47,19,30.29,30.15,29.97,10,10,10,33,17,41,0.00,0,,277
2013-1-22,55,44,32,1,-3,-13,24,17,9,30.16,30.04,29.92,10,10,10,35,16,47,0.00,0,,281
2013-1-23,58,47,35,6,-4,-16,29,19,8,30.13,30.05,29.99,10,10,10,31,16,40,0.00,0,,265
2013-1-24,57,45,33,26,13,-2,54,34,13,30.08,29.99,29.86,10,10,10,38,17,48,0.00,1,,276
2013-1-25,53,42,31,26,24,22,69,51,32,30.14,30.06,29.99,10,10,10,22,12,28,0.00,0,,252
2013-1-26,50,38,26,27,24,21,75,56,36,30.03,29.88,29.70,10,10,10,24,5,30,0.00,3,,229
2013-1-27,53,42,30,29,25,18,78,52,26,29.75,29.69,29.62,10,10,10,26,7,35,0.00,4,,261
2013-1-28,42,31,19,25,20,7,85,62,39,29.80,29.67,29.60,10,8,1,24,11,32,T,5,Snow,339
2013-1-29,27,17,6,14,7,-3,84,57,29,30.07,29.84,29.65,10,6,0,30,16,38,0.03,6,Snow,336
2013-1-30,32,19,5,21,11,-2,80,63,45,30.04,29.94,29.88,10,10,10,35,17,47,0.00,5,,307
2013-1-31,40,30,19,19,15,11,84,57,30,30.19,30.06,29.86,10,10,10,31,14,43,0.00,4,,309